Time;durP1;ratioP1;P1;durP2;ratioP2;P2;SDS_P1;SDS_P2;PMS_P1;PMS_P2;Temp;Humidity;BMP_temperature;BMP_pressure;BME280_temperature;BME280_humidity;BME280_pressure;Samples;Min_cycle;Max_cycle;Signal;HPM_P1;HPM_P2
2022/11/16 00:00:49;;;;;;;1.80;1.40;;;15.30;64.30;;;;;;5028831;28;20054;-71
2022/11/16 00:03:16;;;;;;;1.75;1.40;;;15.30;64.40;;;;;;5028993;28;20061;-72
2022/11/16 00:05:43;;;;;;;2.40;1.55;;;15.30;64.40;;;;;;5029084;28;20479;-72
2022/11/16 00:08:11;;;;;;;2.92;1.55;;;15.30;64.40;;;;;;5028794;28;20056;-72
2022/11/16 00:10:41;;;;;;;1.98;1.58;;;15.30;64.40;;;;;;5013123;28;20388;-72
2022/11/16 00:13:08;;;;;;;1.85;1.40;;;15.30;64.50;;;;;;5029481;28;20060;-72
2022/11/16 00:15:35;;;;;;;1.80;1.55;;;15.30;64.50;;;;;;5028810;28;20483;-72
2022/11/16 00:18:01;;;;;;;3.05;1.45;;;15.30;64.50;;;;;;5028801;28;20050;-71
2022/11/16 00:20:28;;;;;;;1.92;1.45;;;15.30;64.50;;;;;;5028466;28;20053;-72
2022/11/16 00:22:55;;;;;;;1.95;1.50;;;15.30;64.50;;;;;;5013353;28;20046;-71
2022/11/16 00:25:23;;;;;;;1.90;1.52;;;15.30;64.60;;;;;;5012803;28;20056;-71
2022/11/16 00:27:49;;;;;;;4.93;1.63;;;15.30;64.60;;;;;;5028496;28;20486;-71
2022/11/16 00:30:16;;;;;;;1.92;1.60;;;15.20;64.50;;;;;;5027593;28;20050;-71
2022/11/16 00:32:43;;;;;;;1.70;1.40;;;15.30;64.60;;;;;;5011352;28;20129;-71
2022/11/16 00:35:10;;;;;;;1.80;1.40;;;15.30;64.60;;;;;;5028456;28;20068;-72
2022/11/16 00:37:36;;;;;;;1.60;1.50;;;15.20;64.60;;;;;;5028881;28;20180;-71
2022/11/16 00:40:04;;;;;;;1.92;1.50;;;15.20;64.60;;;;;;5028030;28;20054;-71
2022/11/16 00:42:32;;;;;;;1.88;1.50;;;15.20;64.60;;;;;;5011959;28;20505;-71
2022/11/16 00:44:58;;;;;;;1.92;1.50;;;15.20;64.70;;;;;;5028167;28;20133;-71
2022/11/16 00:47:26;;;;;;;1.70;1.50;;;15.20;64.70;;;;;;5028024;28;20049;-72
2022/11/16 00:49:52;;;;;;;1.90;1.40;;;15.20;64.70;;;;;;5028198;28;20521;-72
2022/11/16 00:52:19;;;;;;;2.63;1.83;;;15.20;64.70;;;;;;5027699;28;20054;-71
2022/11/16 00:54:46;;;;;;;4.80;1.60;;;15.20;64.70;;;;;;5027950;28;20057;-71
2022/11/16 00:57:12;;;;;;;1.67;1.55;;;15.20;64.70;;;;;;5028007;28;20476;-72
2022/11/16 00:59:40;;;;;;;1.90;1.58;;;15.20;64.70;;;;;;5027913;28;20064;-72
2022/11/16 01:02:07;;;;;;;2.15;1.75;;;15.20;64.70;;;;;;5012228;28;20045;-72
2022/11/16 01:04:34;;;;;;;1.98;1.63;;;15.20;64.80;;;;;;5028355;28;20412;-71
2022/11/16 01:07:00;;;;;;;2.28;1.50;;;15.20;64.80;;;;;;5027297;28;20050;-72
2022/11/16 01:09:27;;;;;;;2.08;1.60;;;15.20;64.80;;;;;;5027830;28;20064;-72
2022/11/16 01:14:46;;;;;;;1.75;1.60;;;15.10;64.80;;;;;;4991366;28;20492;-71
2022/11/16 01:17:13;;;;;;;1.92;1.40;;;15.10;64.90;;;;;;5027565;28;20069;-71
2022/11/16 01:19:39;;;;;;;1.52;1.42;;;15.20;64.90;;;;;;5027656;28;20160;-72
2022/11/16 01:22:06;;;;;;;2.35;1.60;;;15.10;64.90;;;;;;5027406;28;20079;-72
2022/11/16 01:24:33;;;;;;;1.92;1.60;;;15.10;64.90;;;;;;5011404;28;20144;-72
2022/11/16 01:26:59;;;;;;;2.88;1.60;;;15.10;64.90;;;;;;5027207;28;20406;-71
2022/11/16 01:29:27;;;;;;;2.40;1.70;;;15.10;64.90;;;;;;5027762;28;20141;-72
2022/11/16 01:31:55;;;;;;;1.88;1.55;;;15.10;64.90;;;;;;5027092;28;20132;-71
2022/11/16 01:34:22;;;;;;;2.40;1.67;;;15.10;64.90;;;;;;5012137;28;20056;-71
2022/11/16 01:36:49;;;;;;;2.30;1.70;;;15.10;64.90;;;;;;5027211;28;20046;-71
2022/11/16 01:39:15;;;;;;;2.05;1.23;;;15.10;64.90;;;;;;5027709;28;20064;-71
2022/11/16 01:41:42;;;;;;;3.50;1.30;;;15.10;65.00;;;;;;5026590;28;20064;-72
2022/11/16 01:44:42;;;;;;;1.90;1.50;;;15.10;64.90;;;;;;5027697;28;20426;-72
2022/11/16 01:47:13;;;;;;;2.42;1.60;;;15.10;67.70;;;;;;5010493;28;20049;-71
2022/11/16 01:49:43;;;;;;;2.00;1.50;;;15.10;65.00;;;;;;5027765;28;20083;-72
2022/11/16 01:52:11;;;;;;;1.88;1.40;;;15.20;65.00;;;;;;5011479;28;20402;-72
2022/11/16 01:54:40;;;;;;;2.03;1.67;;;15.10;65.00;;;;;;5034489;28;20083;-72
2022/11/16 01:57:08;;;;;;;2.65;1.50;;;15.10;65.00;;;;;;5030556;28;20051;-72
2022/11/16 01:59:35;;;;;;;1.70;1.30;;;15.10;65.00;;;;;;5030745;28;20057;-72
2022/11/16 02:02:01;;;;;;;2.03;1.50;;;15.10;65.00;;;;;;5029927;28;20411;-71
2022/11/16 02:04:29;;;;;;;1.90;1.45;;;15.10;65.00;;;;;;5030572;28;20053;-72
2022/11/16 02:06:59;;;;;;;2.13;1.60;;;15.10;65.00;;;;;;5030140;28;20483;-72
2022/11/16 02:12:45;;;;;;;1.90;1.40;;;15.10;65.00;;;;;;5030308;28;20045;-72
2022/11/16 02:15:18;;;;;;;1.50;1.40;;;15.10;65.00;;;;;;5029998;28;20148;-72
2022/11/16 02:17:48;;;;;;;1.40;1.23;;;15.10;65.10;;;;;;5030447;28;20144;-72
2022/11/16 02:20:46;;;;;;;2.00;1.58;;;15.10;65.10;;;;;;5029938;28;20077;-72
2022/11/16 02:23:48;;;;;;;1.85;1.45;;;15.10;65.00;;;;;;5030949;28;20053;-72
2022/11/16 02:26:24;;;;;;;2.60;1.75;;;15.10;65.10;;;;;;5029731;28;20061;-72
2022/11/16 02:29:00;;;;;;;2.17;1.60;;;15.10;65.20;;;;;;5030201;28;20487;-72
2022/11/16 02:31:28;;;;;;;2.05;1.55;;;15.10;65.20;;;;;;5029731;28;20064;-72
2022/11/16 02:33:54;;;;;;;1.70;1.40;;;15.10;65.20;;;;;;5030223;28;20497;-71
2022/11/16 02:36:22;;;;;;;1.85;1.48;;;15.10;65.20;;;;;;5029957;28;20053;-72
2022/11/16 02:38:51;;;;;;;1.85;1.48;;;15.10;65.20;;;;;;5030057;28;20049;-71
2022/11/16 02:41:20;;;;;;;1.85;1.63;;;15.10;65.20;;;;;;5029765;28;20059;-71
2022/11/16 02:43:48;;;;;;;1.60;1.50;;;15.00;65.20;;;;;;5029571;28;20057;-71
2022/11/16 02:46:18;;;;;;;1.63;1.50;;;15.10;65.20;;;;;;5030184;28;20064;-72
2022/11/16 02:48:47;;;;;;;1.55;1.33;;;15.10;65.30;;;;;;5030070;28;20336;-71
2022/11/16 02:51:14;;;;;;;1.67;1.40;;;15.00;65.20;;;;;;5029829;28;20057;-71
2022/11/16 02:53:42;;;;;;;1.70;1.40;;;15.10;65.30;;;;;;5030353;28;20499;-71
2022/11/16 02:56:11;;;;;;;2.13;1.38;;;15.00;65.20;;;;;;5033470;28;20057;-71
2022/11/16 02:58:38;;;;;;;2.17;1.50;;;15.00;65.30;;;;;;5033802;28;20083;-72
2022/11/16 03:01:06;;;;;;;1.52;1.30;;;15.00;65.30;;;;;;5033137;28;20056;-71
2022/11/16 03:03:37;;;;;;;2.20;1.70;;;15.00;65.20;;;;;;5033721;28;20064;-72
2022/11/16 03:06:05;;;;;;;1.98;1.60;;;15.00;65.30;;;;;;5033577;28;20486;-71
2022/11/16 03:08:33;;;;;;;2.30;1.50;;;15.00;65.30;;;;;;5033560;28;20128;-71
2022/11/16 03:13:44;;;;;;;2.08;1.40;;;15.10;65.30;;;;;;5034500;28;20132;-71
2022/11/16 03:16:13;;;;;;;1.80;1.40;;;15.00;65.30;;;;;;5033241;28;20072;-71
2022/11/16 03:18:41;;;;;;;2.00;1.63;;;15.00;65.30;;;;;;5033610;28;20128;-71
2022/11/16 03:21:12;;;;;;;1.95;1.50;;;15.00;65.30;;;;;;5032655;28;20661;-71
2022/11/16 03:23:39;;;;;;;1.60;1.35;;;15.00;65.30;;;;;;5033384;28;20057;-71
2022/11/16 03:26:07;;;;;;;2.17;1.45;;;15.00;65.30;;;;;;5034378;28;20388;-71
2022/11/16 03:28:34;;;;;;;2.92;1.40;;;15.00;65.30;;;;;;5032867;28;20451;-71
2022/11/16 03:31:04;;;;;;;1.40;1.30;;;15.00;65.30;;;;;;5032182;28;20061;-72
2022/11/16 03:33:31;;;;;;;2.30;1.65;;;15.00;65.30;;;;;;5032956;28;20318;-72
2022/11/16 03:36:01;;;;;;;1.75;1.50;;;15.00;65.30;;;;;;5032737;28;20053;-71
2022/11/16 03:38:28;;;;;;;2.05;1.73;;;15.00;65.30;;;;;;5032617;28;20060;-71
2022/11/16 03:40:56;;;;;;;2.13;1.65;;;15.10;65.30;;;;;;5032158;28;20132;-71
2022/11/16 03:43:22;;;;;;;1.98;1.50;;;15.10;65.30;;;;;;5032834;28;20057;-71
2022/11/16 03:45:49;;;;;;;1.65;1.50;;;15.10;65.30;;;;;;5032801;28;20498;-72
2022/11/16 03:48:16;;;;;;;2.20;1.70;;;15.10;65.30;;;;;;5032329;28;20053;-71
2022/11/16 03:50:42;;;;;;;1.98;1.60;;;15.00;65.30;;;;;;5031748;28;20061;-72
2022/11/16 03:53:10;;;;;;;2.67;1.73;;;15.00;65.30;;;;;;5032699;28;20144;-72
2022/11/16 03:55:37;;;;;;;1.80;1.60;;;15.00;65.30;;;;;;5032740;28;20057;-71
2022/11/16 03:58:04;;;;;;;2.15;1.58;;;15.00;65.30;;;;;;5032648;28;20077;-71
2022/11/16 04:00:31;;;;;;;2.17;1.60;;;15.10;65.30;;;;;;5031838;28;20513;-71
2022/11/16 04:02:57;;;;;;;1.90;1.50;;;15.10;65.40;;;;;;5032435;28;20144;-71
2022/11/16 04:24:41;;;;;;;2.28;1.70;;;15.10;65.40;;;;;;5032225;28;20049;-71
2022/11/16 04:29:53;;;;;;;2.92;1.60;;;15.10;65.40;;;;;;5031655;28;20136;-71
2022/11/16 04:37:52;;;;;;;1.77;1.50;;;15.10;65.40;;;;;;5031971;28;20522;-71
2022/11/16 04:40:21;;;;;;;2.03;1.63;;;15.00;65.30;;;;;;5031680;28;20072;-71
2022/11/16 04:42:51;;;;;;;2.63;1.60;;;15.10;65.40;;;;;;5031841;28;20059;-71
2022/11/16 04:48:02;;;;;;;2.65;1.80;;;15.10;65.40;;;;;;5031507;28;20128;-72
2022/11/16 04:50:29;;;;;;;2.20;1.70;;;15.00;65.30;;;;;;5031015;28;20481;-71
2022/11/16 04:52:56;;;;;;;2.00;1.58;;;15.10;65.40;;;;;;5031231;28;20152;-72
2022/11/16 04:55:24;;;;;;;1.60;1.30;;;15.10;65.40;;;;;;5031644;28;20180;-72
2022/11/16 04:57:50;;;;;;;2.80;1.90;;;15.00;65.30;;;;;;5031635;28;20055;-71
2022/11/16 05:00:18;;;;;;;2.13;1.80;;;15.00;65.30;;;;;;5030416;28;20426;-72
2022/11/16 05:02:44;;;;;;;2.15;1.60;;;15.10;65.40;;;;;;5031573;28;20053;-71
2022/11/16 05:05:11;;;;;;;1.52;1.40;;;15.10;65.40;;;;;;5031479;28;20053;-71
2022/11/16 05:07:38;;;;;;;2.10;1.60;;;15.10;65.40;;;;;;5031112;28;20059;-71
2022/11/16 05:10:06;;;;;;;1.85;1.50;;;15.10;65.40;;;;;;5031620;28;20514;-71
2022/11/16 05:12:34;;;;;;;1.63;1.42;;;15.10;65.40;;;;;;5031317;28;20049;-72
2022/11/16 05:15:01;;;;;;;3.45;1.70;;;15.10;65.40;;;;;;5031257;28;20057;-71
2022/11/16 05:17:28;;;;;;;2.22;1.50;;;15.10;65.40;;;;;;5030827;28;20474;-71
2022/11/16 05:22:54;;;;;;;2.42;1.52;;;15.10;65.40;;;;;;4974416;28;20054;-70
2022/11/16 05:25:21;;;;;;;3.08;1.73;;;15.10;65.50;;;;;;4990435;28;20458;-70
2022/11/16 05:27:49;;;;;;;2.10;1.77;;;15.10;65.40;;;;;;4997436;28;20052;-70
2022/11/16 05:30:16;;;;;;;1.63;1.45;;;15.10;65.40;;;;;;5030339;28;20505;-70
2022/11/16 05:32:43;;;;;;;2.00;1.50;;;15.10;65.40;;;;;;5031073;28;20079;-70
2022/11/16 05:35:09;;;;;;;1.80;1.50;;;15.10;65.40;;;;;;5031998;28;20045;-70
2022/11/16 05:37:36;;;;;;;1.90;1.60;;;15.10;65.40;;;;;;5030969;28;20057;-70
2022/11/16 05:40:03;;;;;;;2.20;1.50;;;15.10;65.40;;;;;;5030958;28;20375;-70
2022/11/16 05:42:30;;;;;;;1.60;1.42;;;15.10;65.40;;;;;;5030950;28;20063;-70
2022/11/16 05:44:58;;;;;;;2.17;1.40;;;15.40;65.50;;;;;;5030658;28;20053;-71
2022/11/16 05:47:24;;;;;;;1.98;1.50;;;15.10;65.30;;;;;;5031770;28;20049;-70
2022/11/16 05:49:51;;;;;;;1.70;1.50;;;15.10;65.30;;;;;;5030865;28;20072;-71
2022/11/16 05:52:18;;;;;;;2.25;1.55;;;15.10;65.30;;;;;;5030562;28;20140;-71
2022/11/16 05:54:44;;;;;;;1.83;1.50;;;15.20;65.40;;;;;;5030472;28;20473;-71
2022/11/16 05:57:11;;;;;;;2.10;1.50;;;15.20;65.40;;;;;;5024558;28;20053;-71
2022/11/16 05:59:38;;;;;;;1.75;1.50;;;15.20;65.30;;;;;;5021475;28;20049;-71
2022/11/16 06:02:06;;;;;;;2.15;1.70;;;15.20;65.30;;;;;;5020538;28;20502;-71
2022/11/16 06:04:32;;;;;;;1.92;1.63;;;15.20;65.30;;;;;;5019447;28;20052;-71
2022/11/16 06:06:59;;;;;;;2.65;1.60;;;15.20;65.30;;;;;;5037416;28;20049;-71
2022/11/16 06:09:26;;;;;;;1.88;1.58;;;15.30;65.40;;;;;;5036557;28;20042;-71
2022/11/16 06:11:52;;;;;;;1.77;1.40;;;15.30;65.30;;;;;;5019074;28;20064;-71
2022/11/16 06:14:19;;;;;;;1.50;1.40;;;15.30;65.30;;;;;;5037790;28;20073;-71
2022/11/16 06:16:46;;;;;;;2.17;1.65;;;15.30;65.30;;;;;;5020699;28;20045;-71
2022/11/16 06:19:14;;;;;;;1.92;1.60;;;15.40;65.30;;;;;;5019487;28;20056;-71
2022/11/16 06:21:41;;;;;;;1.52;1.35;;;15.40;65.20;;;;;;5018622;28;20050;-71
2022/11/16 06:24:08;;;;;;;1.70;1.50;;;15.50;65.20;;;;;;5021160;28;20054;-71
2022/11/16 06:26:35;;;;;;;1.85;1.40;;;15.50;65.20;;;;;;5020980;28;20061;-71
2022/11/16 06:29:02;;;;;;;1.90;1.40;;;15.50;65.10;;;;;;5019945;28;20046;-71
2022/11/16 06:31:29;;;;;;;1.85;1.50;;;15.60;65.10;;;;;;5023106;28;20415;-71
2022/11/16 06:33:55;;;;;;;1.80;1.60;;;15.60;65.10;;;;;;5041287;28;20059;-71
2022/11/16 06:36:23;;;;;;;2.15;1.60;;;15.60;65.10;;;;;;5024161;28;20042;-71
2022/11/16 06:38:50;;;;;;;2.17;1.50;;;15.60;65.00;;;;;;5025447;28;20063;-71
2022/11/16 06:41:17;;;;;;;1.70;1.45;;;15.60;65.00;;;;;;5024411;28;20053;-71
2022/11/16 06:43:44;;;;;;;1.50;1.40;;;15.70;65.00;;;;;;5039842;28;20137;-71
2022/11/16 06:46:10;;;;;;;3.38;1.88;;;15.70;64.90;;;;;;5025084;28;20079;-71
2022/11/16 06:48:37;;;;;;;1.95;1.58;;;15.70;64.90;;;;;;5033233;28;20049;-71
2022/11/16 06:51:04;;;;;;;2.15;1.60;;;15.70;64.80;;;;;;5033488;28;20143;-71
2022/11/16 06:53:32;;;;;;;1.60;1.40;;;15.70;64.80;;;;;;5033962;28;20045;-71
2022/11/16 06:56:01;;;;;;;1.90;1.50;;;15.70;64.80;;;;;;5033819;28;20509;-71
2022/11/16 06:58:29;;;;;;;1.90;1.60;;;15.80;64.80;;;;;;5033632;28;20052;-71
2022/11/16 07:00:56;;;;;;;1.70;1.50;;;15.80;64.80;;;;;;5033479;28;20063;-71
2022/11/16 07:03:22;;;;;;;1.85;1.35;;;15.80;64.80;;;;;;5034718;28;20045;-71
2022/11/16 07:05:49;;;;;;;2.22;1.63;;;15.80;64.70;;;;;;5034235;28;20053;-70
2022/11/16 07:08:16;;;;;;;2.03;1.48;;;15.80;64.70;;;;;;5032419;28;20050;-71
2022/11/16 07:10:44;;;;;;;1.67;1.42;;;15.80;64.70;;;;;;5033771;28;20058;-71
2022/11/16 07:13:11;;;;;;;1.38;1.25;;;15.80;64.70;;;;;;5032574;28;20049;-71
2022/11/16 07:15:37;;;;;;;1.88;1.45;;;15.80;64.70;;;;;;5032732;28;20506;-71
2022/11/16 07:18:05;;;;;;;2.85;1.40;;;15.80;64.70;;;;;;5032476;28;20065;-71
2022/11/16 07:20:31;;;;;;;2.17;1.42;;;15.90;64.70;;;;;;5032076;28;20132;-71
2022/11/16 07:23:01;;;;;;;1.65;1.30;;;15.90;64.70;;;;;;5032411;28;20058;-71
2022/11/16 07:25:28;;;;;;;1.67;1.40;;;15.90;64.70;;;;;;5032512;28;20063;-71
2022/11/16 07:27:57;;;;;;;1.75;1.60;;;15.90;64.70;;;;;;5032581;28;20068;-71
2022/11/16 07:30:24;;;;;;;2.10;1.30;;;15.90;64.70;;;;;;5032157;28;20060;-71
2022/11/16 07:32:50;;;;;;;1.60;1.45;;;15.90;64.70;;;;;;5032484;28;20068;-71
2022/11/16 07:35:17;;;;;;;1.55;1.30;;;15.90;64.60;;;;;;5032214;28;20060;-71
2022/11/16 07:37:44;;;;;;;1.98;1.60;;;15.90;64.70;;;;;;5033487;28;20085;-71
2022/11/16 07:40:11;;;;;;;1.80;1.40;;;16.00;64.70;;;;;;5031559;28;20103;-71
2022/11/16 07:42:38;;;;;;;1.80;1.50;;;15.90;64.60;;;;;;5032427;28;20140;-70
2022/11/16 07:45:08;;;;;;;1.83;1.38;;;15.90;64.60;;;;;;5033464;28;20136;-71
2022/11/16 07:47:36;;;;;;;1.70;1.40;;;16.00;64.60;;;;;;5033501;28;20050;-71
2022/11/16 07:50:03;;;;;;;2.13;1.60;;;16.00;64.60;;;;;;5032832;28;20132;-71
2022/11/16 07:52:30;;;;;;;3.08;1.50;;;16.00;64.60;;;;;;5033278;28;20423;-70
2022/11/16 07:54:57;;;;;;;1.80;1.60;;;16.00;64.60;;;;;;5032809;28;20145;-71
2022/11/16 07:57:24;;;;;;;1.95;1.50;;;16.00;64.60;;;;;;5032197;28;20487;-71
2022/11/16 07:59:50;;;;;;;1.55;1.40;;;16.10;64.60;;;;;;5031829;28;20059;-72
2022/11/16 08:02:18;;;;;;;1.77;1.67;;;16.00;64.60;;;;;;5031680;28;20409;-71
2022/11/16 08:04:45;;;;;;;1.52;1.40;;;16.10;64.60;;;;;;5031430;28;20136;-71
2022/11/16 08:07:13;;;;;;;1.90;1.50;;;16.00;64.50;;;;;;5031675;28;20057;-71
2022/11/16 08:09:39;;;;;;;2.00;1.50;;;16.00;64.50;;;;;;5031307;28;20132;-71
2022/11/16 08:12:06;;;;;;;3.42;1.63;;;16.10;64.60;;;;;;5031395;28;20108;-71
2022/11/16 08:14:33;;;;;;;3.40;1.40;;;16.10;64.60;;;;;;5032033;28;20441;-71
2022/11/16 08:17:02;;;;;;;1.73;1.40;;;16.10;64.60;;;;;;5031143;28;20057;-72
2022/11/16 08:19:30;;;;;;;1.77;1.38;;;16.10;64.50;;;;;;5031314;28;20045;-71
2022/11/16 08:21:57;;;;;;;2.00;1.60;;;16.10;64.50;;;;;;5030268;28;20053;-71
2022/11/16 08:24:24;;;;;;;1.65;1.40;;;16.10;64.50;;;;;;5030890;28;20053;-71
2022/11/16 08:26:50;;;;;;;1.50;1.40;;;16.10;64.50;;;;;;5031389;28;20498;-71
2022/11/16 08:29:17;;;;;;;2.35;1.40;;;16.10;64.50;;;;;;5031921;28;20061;-71
2022/11/16 08:31:44;;;;;;;1.48;1.30;;;16.10;64.50;;;;;;5030202;28;20418;-71
2022/11/16 08:34:11;;;;;;;1.48;1.20;;;16.10;64.50;;;;;;5031422;28;20612;-73
2022/11/16 08:36:39;;;;;;;1.65;1.30;;;16.20;64.50;;;;;;5032245;28;20129;-71
2022/11/16 08:39:06;;;;;;;1.85;1.42;;;16.20;64.50;;;;;;5030690;28;20427;-72
2022/11/16 08:41:34;;;;;;;2.45;1.20;;;16.20;64.50;;;;;;5031474;28;20053;-71
2022/11/16 08:44:01;;;;;;;1.40;1.30;;;16.20;64.50;;;;;;5031149;28;20511;-71
2022/11/16 08:46:28;;;;;;;2.17;1.50;;;16.20;64.50;;;;;;5030802;28;20141;-72
2022/11/16 08:48:55;;;;;;;1.48;1.27;;;16.20;64.50;;;;;;5031878;28;20053;-71
2022/11/16 08:51:22;;;;;;;1.85;1.50;;;16.20;64.40;;;;;;5029768;28;20499;-70
2022/11/16 08:53:54;;;;;;;1.50;1.35;;;16.20;64.50;;;;;;5030133;28;20057;-71
2022/11/16 08:56:21;;;;;;;1.52;1.30;;;16.20;64.40;;;;;;5031956;28;20064;-71
2022/11/16 08:58:48;;;;;;;2.00;1.17;;;16.20;64.40;;;;;;5031761;28;20369;-71
2022/11/16 09:01:15;;;;;;;1.83;1.30;;;16.30;64.50;;;;;;5031667;28;20049;-71
2022/11/16 09:03:42;;;;;;;1.58;1.35;;;16.30;64.40;;;;;;5031969;28;20104;-71
2022/11/16 09:06:09;;;;;;;1.60;1.33;;;16.30;64.40;;;;;;5030837;28;20502;-71
2022/11/16 09:08:36;;;;;;;1.75;1.30;;;16.30;64.50;;;;;;5031279;28;20490;-71
2022/11/16 09:11:05;;;;;;;2.22;1.30;;;16.30;64.40;;;;;;5030069;28;20053;-71
2022/11/16 09:13:32;;;;;;;1.70;1.30;;;16.30;64.50;;;;;;5031647;28;20494;-71
2022/11/16 09:15:59;;;;;;;1.65;1.27;;;16.30;64.50;;;;;;5030528;28;20053;-71
2022/11/16 09:18:26;;;;;;;1.80;1.20;;;16.30;64.50;;;;;;5029955;28;20179;-71
2022/11/16 09:20:53;;;;;;;1.52;1.35;;;16.30;64.50;;;;;;5029746;28;20053;-71
2022/11/16 09:23:20;;;;;;;1.80;1.40;;;16.20;64.50;;;;;;5031341;28;20049;-72
2022/11/16 09:25:47;;;;;;;1.83;1.40;;;16.30;64.50;;;;;;5030488;28;20053;-71
2022/11/16 09:28:15;;;;;;;1.35;1.23;;;16.20;64.50;;;;;;5031886;28;20445;-71
2022/11/16 09:30:43;;;;;;;3.25;1.48;;;16.20;64.60;;;;;;5029413;28;20051;-71
2022/11/16 09:33:10;;;;;;;2.15;1.48;;;16.20;64.60;;;;;;5029805;28;20075;-71
2022/11/16 09:35:36;;;;;;;1.92;1.50;;;16.30;64.80;;;;;;5030217;28;20855;-71
2022/11/16 09:38:03;;;;;;;2.05;1.50;;;16.30;64.90;;;;;;5030284;28;20479;-71
2022/11/16 09:40:31;;;;;;;1.42;1.30;;;16.20;64.90;;;;;;5029884;28;20081;-71
2022/11/16 09:43:00;;;;;;;1.70;1.40;;;16.20;64.90;;;;;;5021630;28;20064;-71
2022/11/16 09:45:31;;;;;;;2.38;2.05;;;16.20;65.00;;;;;;5011385;28;20145;-71
2022/11/16 09:48:01;;;;;;;1.83;1.40;;;16.20;65.00;;;;;;5027021;28;20060;-71
2022/11/16 09:50:41;;;;;;;1.70;1.40;;;16.20;65.00;;;;;;5010866;28;20148;-71
2022/11/16 09:53:14;;;;;;;1.92;1.40;;;16.10;65.00;;;;;;5026833;28;20062;-71
2022/11/16 09:55:43;;;;;;;2.67;1.50;;;16.10;65.00;;;;;;5026984;28;20076;-71
2022/11/16 09:58:13;;;;;;;1.50;1.20;;;16.10;65.00;;;;;;5011279;28;20050;-71
2022/11/16 10:00:43;;;;;;;2.25;1.67;;;16.10;65.10;;;;;;5026280;28;20046;-71
2022/11/16 10:03:11;;;;;;;1.58;1.40;;;16.10;65.10;;;;;;5011314;28;20388;-70
2022/11/16 10:05:40;;;;;;;1.20;1.10;;;16.10;65.10;;;;;;5029655;28;20054;-70
2022/11/16 10:08:12;;;;;;;1.40;1.30;;;16.10;65.10;;;;;;5030557;28;20068;-71
2022/11/16 10:10:42;;;;;;;1.42;1.30;;;16.10;65.10;;;;;;5013586;28;20499;-71
2022/11/16 10:13:12;;;;;;;1.67;1.30;;;16.10;65.10;;;;;;5014238;28;20136;-71
2022/11/16 10:15:46;;;;;;;2.17;1.65;;;16.10;65.10;;;;;;5030434;28;20054;-70
2022/11/16 10:18:21;;;;;;;2.00;1.60;;;16.10;65.10;;;;;;5030149;28;20103;-70
2022/11/16 10:20:53;;;;;;;1.95;1.40;;;16.10;65.10;;;;;;5029768;28;20046;-71
2022/11/16 10:23:25;;;;;;;2.15;1.40;;;16.10;65.20;;;;;;5030471;28;20136;-71
2022/11/16 10:25:54;;;;;;;1.80;1.40;;;16.10;65.20;;;;;;5030372;28;20487;-71
2022/11/16 10:28:35;;;;;;;1.65;1.40;;;16.10;65.10;;;;;;5013684;28;20084;-71
2022/11/16 10:31:07;;;;;;;2.00;1.40;;;16.10;65.10;;;;;;5029633;28;20053;-71
2022/11/16 10:33:35;;;;;;;1.63;1.40;;;16.10;65.20;;;;;;5030491;28;20060;-71
2022/11/16 10:36:05;;;;;;;1.58;1.30;;;16.10;65.20;;;;;;5019357;28;20052;-71
2022/11/16 10:38:32;;;;;;;1.40;1.30;;;16.10;65.20;;;;;;5020648;28;20054;-71
2022/11/16 10:41:02;;;;;;;1.45;1.30;;;16.10;65.20;;;;;;5013976;28;20057;-71
2022/11/16 10:43:30;;;;;;;1.30;1.20;;;16.10;65.20;;;;;;5014699;28;20519;-71
2022/11/16 10:45:59;;;;;;;1.48;1.38;;;16.10;65.20;;;;;;5014226;28;20400;-71
2022/11/16 10:48:35;;;;;;;1.80;1.40;;;16.00;65.10;;;;;;5014630;28;20050;-71
2022/11/16 10:51:03;;;;;;;3.20;1.50;;;16.10;65.20;;;;;;5029099;28;20123;-71
2022/11/16 10:53:32;;;;;;;1.95;1.50;;;16.00;65.20;;;;;;5030084;28;20080;-70
2022/11/16 10:56:09;;;;;;;1.70;1.48;;;16.00;65.20;;;;;;5030004;28;20053;-71
2022/11/16 10:58:48;;;;;;;1.60;1.42;;;16.00;65.20;;;;;;5030531;28;20053;-71
2022/11/16 11:01:26;;;;;;;1.85;1.33;;;16.00;65.20;;;;;;5031862;28;20366;-71
2022/11/16 11:03:54;;;;;;;1.50;1.40;;;15.70;66.10;;;;;;5029613;28;20547;-71
2022/11/16 11:06:21;;;;;;;2.25;1.40;;;16.00;65.20;;;;;;5033074;28;20049;-71
2022/11/16 11:08:48;;;;;;;1.95;1.50;;;16.00;65.20;;;;;;5032659;28;20084;-71
2022/11/16 11:14:05;;;;;;;1.60;1.40;;;16.00;65.30;;;;;;5032974;28;20049;-71
2022/11/16 11:16:31;;;;;;;1.50;1.30;;;16.00;65.30;;;;;;5032571;28;20057;-71
2022/11/16 11:19:15;;;;;;;1.92;1.30;;;16.00;65.30;;;;;;5033228;28;20118;-71
2022/11/16 11:21:42;;;;;;;1.42;1.33;;;16.00;65.40;;;;;;5033224;28;20430;-71
2022/11/16 11:24:15;;;;;;;1.63;1.48;;;16.00;65.40;;;;;;5032707;28;20144;-71
2022/11/16 11:26:41;;;;;;;1.50;1.27;;;16.00;65.40;;;;;;5033468;28;20061;-71
2022/11/16 11:29:16;;;;;;;1.60;1.35;;;16.00;65.40;;;;;;5034463;28;20107;-72
2022/11/16 11:31:45;;;;;;;1.80;1.55;;;16.00;65.40;;;;;;5032692;28;20499;-71
2022/11/16 11:34:16;;;;;;;2.20;1.50;;;16.00;65.40;;;;;;5034177;28;20060;-71
2022/11/16 11:36:44;;;;;;;3.70;1.45;;;16.00;65.40;;;;;;5033096;28;20049;-72
2022/11/16 11:39:27;;;;;;;2.03;1.40;;;16.00;65.50;;;;;;5033157;28;20059;-73
2022/11/16 11:42:01;;;;;;;2.67;1.50;;;16.00;65.40;;;;;;5032606;28;20057;-73
2022/11/16 11:44:31;;;;;;;2.35;1.75;;;16.00;65.50;;;;;;5032667;28;20059;-73
2022/11/16 11:47:05;;;;;;;3.58;1.70;;;16.00;65.50;;;;;;5032750;28;20506;-73
2022/11/16 11:49:35;;;;;;;2.95;1.60;;;16.00;65.50;;;;;;5032755;28;20053;-73
2022/11/16 11:52:05;;;;;;;1.85;1.30;;;16.00;65.50;;;;;;5032368;28;20136;-72
2022/11/16 11:54:32;;;;;;;1.65;1.40;;;16.00;65.50;;;;;;5032141;28;20411;-73
2022/11/16 11:56:59;;;;;;;1.55;1.23;;;16.00;65.60;;;;;;5032799;28;20059;-73
2022/11/16 11:59:26;;;;;;;1.80;1.30;;;16.00;65.60;;;;;;5032722;28;20060;-72
2022/11/16 12:02:12;;;;;;;1.30;1.20;;;16.00;65.60;;;;;;5033249;28;20402;-72
2022/11/16 12:04:44;;;;;;;;;;;15.90;65.50;;;;;;5033747;28;20049;-72
2022/11/16 12:07:14;;;;;;;1.40;1.30;;;15.90;65.50;;;;;;5032679;28;19928;-72
2022/11/16 12:09:44;;;;;;;1.42;1.25;;;15.90;65.70;;;;;;5032559;28;20057;-72
2022/11/16 12:12:18;;;;;;;1.48;1.20;;;15.90;65.60;;;;;;5031710;28;20060;-72
2022/11/16 12:15:13;;;;;;;1.40;1.30;;;15.90;65.60;;;;;;5032644;28;20057;-72
2022/11/16 12:17:43;;;;;;;1.63;1.27;;;15.90;65.60;;;;;;5017350;28;20083;-72
2022/11/16 12:20:21;;;;;;;1.90;1.38;;;15.90;65.60;;;;;;5031526;28;20059;-72
2022/11/16 12:23:06;;;;;;;2.15;1.40;;;15.90;65.50;;;;;;5032020;28;20055;-73
2022/11/16 12:25:35;;;;;;;2.33;1.42;;;15.90;65.60;;;;;;5032206;28;20075;-72
2022/11/16 12:28:13;;;;;;;2.15;1.55;;;15.90;65.60;;;;;;5031208;28;20057;-72
2022/11/16 12:30:45;;;;;;;1.85;1.33;;;15.90;65.60;;;;;;5031267;28;20053;-72
2022/11/16 12:33:17;;;;;;;2.35;1.40;;;15.90;65.60;;;;;;5031908;28;20057;-72
2022/11/16 12:35:52;;;;;;;2.17;1.42;;;15.90;65.60;;;;;;5032043;28;20053;-72
2022/11/16 12:38:46;;;;;;;2.47;1.30;;;15.90;65.60;;;;;;5031977;28;20136;-72
2022/11/16 12:41:41;;;;;;;1.40;1.20;;;15.90;65.50;;;;;;5031143;28;20503;-72
2022/11/16 12:44:08;;;;;;;2.10;1.30;;;15.90;65.50;;;;;;5032924;28;20052;-72
2022/11/16 12:46:39;;;;;;;2.42;1.30;;;15.90;66.10;;;;;;5032857;28;20520;-72
2022/11/16 12:49:34;;;;;;;2.22;1.20;;;15.90;65.60;;;;;;5031514;28;20053;-72
2022/11/16 12:52:08;;;;;;;2.85;1.50;;;16.00;65.50;;;;;;5022954;28;20137;-71
2022/11/16 12:54:55;;;;;;;1.88;1.25;;;15.90;65.50;;;;;;5032865;28;20414;-72
2022/11/16 12:57:24;;;;;;;1.70;1.30;;;15.90;65.50;;;;;;5032631;28;20104;-72
2022/11/16 13:00:01;;;;;;;2.95;1.40;;;16.00;65.60;;;;;;5032324;28;20410;-72
2022/11/16 13:02:33;;;;;;;1.50;1.20;;;15.90;65.50;;;;;;5032869;28;20064;-72
2022/11/16 13:05:01;;;;;;;1.52;1.20;;;15.90;65.50;;;;;;5031493;28;20067;-71
2022/11/16 13:07:31;;;;;;;2.28;1.30;;;15.90;65.50;;;;;;5031540;28;20514;-72
2022/11/16 13:10:00;;;;;;;1.83;1.23;;;16.00;65.60;;;;;;5030792;28;20057;-71
2022/11/16 13:12:27;;;;;;;1.77;1.30;;;16.00;65.50;;;;;;5031370;28;20057;-71
2022/11/16 13:14:55;;;;;;;1.85;1.20;;;16.00;65.60;;;;;;5032179;28;20136;-71
2022/11/16 13:17:23;;;;;;;3.17;1.20;;;16.00;65.50;;;;;;5033228;28;20140;-71
2022/11/16 13:19:59;;;;;;;1.20;1.10;;;16.00;65.50;;;;;;5031120;28;20133;-72
2022/11/16 13:22:26;;;;;;;1.65;1.25;;;16.10;65.60;;;;;;5023676;28;20041;-71
2022/11/16 13:24:57;;;;;;;1.77;1.30;;;16.00;65.60;;;;;;5024838;28;20132;-72
2022/11/16 13:27:34;;;;;;;1.10;1.00;;;16.00;65.60;;;;;;5038982;28;20049;-71
2022/11/16 13:30:03;;;;;;;1.60;1.30;;;16.00;65.60;;;;;;5023066;28;20056;-72
2022/11/16 13:32:37;;;;;;;1.83;1.23;;;16.10;65.70;;;;;;5026388;28;20056;-71
2022/11/16 13:35:04;;;;;;;1.33;1.20;;;16.10;65.70;;;;;;5023237;28;20108;-72
2022/11/16 13:37:44;;;;;;;1.55;1.35;;;16.10;65.70;;;;;;5022556;28;20049;-72
2022/11/16 13:40:29;;;;;;;1.65;1.15;;;16.10;65.60;;;;;;5018501;28;20048;-72
2022/11/16 13:43:02;;;;;;;2.00;1.10;;;16.10;65.60;;;;;;5019286;28;20060;-72